Time;durP1;ratioP1;P1;durP2;ratioP2;P2;SDS_P1;SDS_P2;PMS_P1;PMS_P2;Temp;Humidity;BMP_temperature;BMP_pressure;BME280_temperature;BME280_humidity;BME280_pressure;Samples;Min_cycle;Max_cycle;Signal;HPM_P1;HPM_P2
2022/01/02 00:01:25;;;;;;;3.03;2.10;;;;;;;;;;5012947;28;20205;-80
2022/01/02 00:03:52;;;;;;;3.87;2.67;;;;;;;;;;5013816;28;20542;-80
2022/01/02 00:06:25;;;;;;;3.10;2.73;;;;;;;;;;5012959;28;20183;-80
2022/01/02 00:08:55;;;;;;;3.47;2.30;;;;;;;;;;4996415;28;20206;-80
2022/01/02 00:11:24;;;;;;;4.73;2.90;;;;;;;;;;5012849;28;20187;-80
2022/01/02 00:13:54;;;;;;;5.33;2.67;;;;;;;;;;5012111;28;20372;-80
2022/01/02 00:16:21;;;;;;;4.10;2.50;;;;;;;;;;5012602;28;20217;-80
2022/01/02 00:18:52;;;;;;;4.80;2.73;;;;;;;;;;4996666;28;20677;-80
2022/01/02 00:21:21;;;;;;;4.93;2.53;;;;;;;;;;5013655;28;20198;-80
2022/01/02 00:23:51;;;;;;;3.73;2.60;;;;;;;;;;5012151;28;20665;-80
2022/01/02 00:26:19;;;;;;;3.43;2.50;;;;;;;;;;4996727;28;20202;-80
2022/01/02 00:28:48;;;;;;;3.63;2.60;;;;;;;;;;5013852;28;20278;-79
2022/01/02 00:31:15;;;;;;;3.37;2.10;;;;;;;;;;5012488;28;20179;-79
2022/01/02 00:33:41;;;;;;;5.00;2.60;;;;;;;;;;5012286;28;20549;-79
2022/01/02 00:36:07;;;;;;;3.27;2.37;;;;;;;;;;5012465;28;20207;-80
2022/01/02 00:38:35;;;;;;;3.80;2.33;;;;;;;;;;5012043;28;20194;-80
2022/01/02 00:41:01;;;;;;;3.17;2.27;;;;;;;;;;4996251;28;20190;-80
2022/01/02 00:43:40;;;;;;;2.97;2.07;;;;;;;;;;4996101;28;20232;-79
2022/01/02 00:46:09;;;;;;;3.47;2.00;;;;;;;;;;5016337;28;20183;-80
2022/01/02 00:48:38;;;;;;;4.43;2.20;;;;;;;;;;4999943;28;20572;-80
2022/01/02 00:51:06;;;;;;;4.60;2.23;;;;;;;;;;5016499;28;20255;-80
2022/01/02 00:53:33;;;;;;;3.37;2.20;;;;;;;;;;5017732;28;20175;-80
2022/01/02 00:56:00;;;;;;;3.07;2.30;;;;;;;;;;5016338;28;20586;-80
2022/01/02 00:58:47;;;;;;;3.17;2.00;;;;;;;;;;4999705;28;20215;-80
2022/01/02 01:01:15;;;;;;;3.57;2.10;;;;;;;;;;5015708;28;20184;-80
2022/01/02 01:03:41;;;;;;;3.83;2.47;;;;;;;;;;5015851;28;20266;-80
2022/01/02 01:06:09;;;;;;;4.83;2.00;;;;;;;;;;4999833;28;20186;-80
2022/01/02 01:08:36;;;;;;;3.53;2.13;;;;;;;;;;5016079;28;20247;-80
2022/01/02 01:11:10;;;;;;;4.67;2.23;;;;;;;;;;5015797;28;20183;-80
2022/01/02 01:13:36;;;;;;;3.33;2.10;;;;;;;;;;5000122;28;20184;-80
2022/01/02 01:16:03;;;;;;;3.53;2.10;;;;;;;;;;5015418;28;20209;-80
2022/01/02 01:18:29;;;;;;;4.90;2.20;;;;;;;;;;5015525;28;20198;-80
2022/01/02 01:20:55;;;;;;;4.40;2.10;;;;;;;;;;5016185;28;20205;-80
2022/01/02 01:23:21;;;;;;;3.50;2.17;;;;;;;;;;4999418;28;20654;-80
2022/01/02 01:25:49;;;;;;;2.93;2.17;;;;;;;;;;4999356;28;20191;-80
2022/01/02 01:28:16;;;;;;;3.67;2.20;;;;;;;;;;4999231;28;20689;-80
2022/01/02 01:30:42;;;;;;;4.00;2.40;;;;;;;;;;5015594;28;20190;-80
2022/01/02 01:33:08;;;;;;;3.33;2.37;;;;;;;;;;4999406;28;20190;-80
2022/01/02 01:35:34;;;;;;;3.10;2.20;;;;;;;;;;5015555;28;20716;-80
2022/01/02 01:38:00;;;;;;;3.47;2.40;;;;;;;;;;5015420;28;20236;-80
2022/01/02 01:40:29;;;;;;;4.20;2.30;;;;;;;;;;5015302;28;20179;-80
2022/01/02 01:42:58;;;;;;;4.37;2.30;;;;;;;;;;5015386;28;20248;-80
2022/01/02 01:47:55;;;;;;;5.07;2.60;;;;;;;;;;5016732;28;20187;-80
2022/01/02 01:50:23;;;;;;;3.77;2.20;;;;;;;;;;5014949;28;20179;-80
2022/01/02 01:52:49;;;;;;;4.77;2.83;;;;;;;;;;5016314;28;20232;-80
2022/01/02 01:55:16;;;;;;;4.53;2.70;;;;;;;;;;4998019;28;20190;-80
2022/01/02 01:57:42;;;;;;;3.93;2.30;;;;;;;;;;5016312;28;20181;-80
2022/01/02 02:00:14;;;;;;;4.07;2.33;;;;;;;;;;5071044;22;20245;-78
2022/01/02 02:02:40;;;;;;;4.03;2.17;;;;;;;;;;5021283;28;20177;-79
2022/01/02 02:05:06;;;;;;;3.03;2.10;;;;;;;;;;5021583;28;20181;-78
2022/01/02 02:07:43;;;;;;;3.87;2.03;;;;;;;;;;5054467;28;20173;-78
2022/01/02 02:12:38;;;;;;;3.70;2.20;;;;;;;;;;5055391;28;20252;-78
2022/01/02 02:15:04;;;;;;;3.27;2.13;;;;;;;;;;5021296;28;20181;-78
2022/01/02 02:17:31;;;;;;;2.70;2.10;;;;;;;;;;5021223;28;20273;-78
2022/01/02 02:19:58;;;;;;;4.27;2.37;;;;;;;;;;5021470;28;20198;-79
2022/01/02 02:22:25;;;;;;;3.27;2.30;;;;;;;;;;5037319;28;20245;-78
2022/01/02 02:24:51;;;;;;;3.53;2.40;;;;;;;;;;5020980;28;20324;-78
2022/01/02 02:27:22;;;;;;;3.77;2.20;;;;;;;;;;5037200;28;20264;-78
2022/01/02 02:29:48;;;;;;;3.53;2.17;;;;;;;;;;5055186;28;20197;-78
2022/01/02 02:32:14;;;;;;;2.63;2.03;;;;;;;;;;5020719;28;20189;-79
2022/01/02 02:34:40;;;;;;;2.67;2.00;;;;;;;;;;5037154;28;20280;-78
2022/01/02 02:37:06;;;;;;;3.00;1.90;;;;;;;;;;5037212;28;20212;-78
2022/01/02 02:39:36;;;;;;;5.70;2.10;;;;;;;;;;5036876;28;20197;-78
2022/01/02 02:42:10;;;;;;;3.50;2.00;;;;;;;;;;5037028;28;20248;-78
2022/01/02 02:44:39;;;;;;;2.77;1.80;;;;;;;;;;5036900;28;20180;-78
2022/01/02 02:49:49;;;;;;;3.60;2.10;;;;;;;;;;5039861;28;20235;-78
2022/01/02 02:52:32;;;;;;;3.80;2.10;;;;;;;;;;5020545;28;20185;-78
2022/01/02 02:54:58;;;;;;;3.03;2.10;;;;;;;;;;5022650;28;20191;-78
2022/01/02 02:57:24;;;;;;;3.17;1.80;;;;;;;;;;5020627;28;20296;-78
2022/01/02 02:59:50;;;;;;;4.10;2.40;;;;;;;;;;5037062;28;20217;-78
2022/01/02 03:02:16;;;;;;;2.93;1.90;;;;;;;;;;5019930;28;20323;-78
2022/01/02 03:04:42;;;;;;;2.70;1.80;;;;;;;;;;5036565;28;20181;-78
2022/01/02 03:07:08;;;;;;;2.23;1.77;;;;;;;;;;5036551;28;20224;-78
2022/01/02 03:12:00;;;;;;;2.67;1.70;;;;;;;;;;5054344;28;20178;-78
2022/01/02 03:14:26;;;;;;;3.13;2.10;;;;;;;;;;5019990;28;20199;-78
2022/01/02 03:16:52;;;;;;;2.97;2.10;;;;;;;;;;5035993;28;20248;-78
2022/01/02 03:19:18;;;;;;;2.80;2.20;;;;;;;;;;5036042;28;20193;-78
2022/01/02 03:21:44;;;;;;;3.90;2.13;;;;;;;;;;5020189;28;20212;-79
2022/01/02 03:24:10;;;;;;;3.00;2.17;;;;;;;;;;5019707;28;20273;-78
2022/01/02 03:26:36;;;;;;;3.87;2.13;;;;;;;;;;5019759;28;20189;-78
2022/01/02 03:29:02;;;;;;;3.00;2.17;;;;;;;;;;5019644;28;20198;-78
2022/01/02 03:31:29;;;;;;;4.10;2.20;;;;;;;;;;5035843;28;20189;-78
2022/01/02 03:33:55;;;;;;;3.53;1.93;;;;;;;;;;5019247;28;20276;-78
2022/01/02 03:36:21;;;;;;;3.33;2.17;;;;;;;;;;5019756;28;20280;-78
2022/01/02 03:38:47;;;;;;;3.73;2.03;;;;;;;;;;5035723;28;20236;-78
2022/01/02 03:41:13;;;;;;;3.97;2.13;;;;;;;;;;5036000;28;20197;-79
2022/01/02 03:43:39;;;;;;;3.67;2.30;;;;;;;;;;5035617;28;20235;-78
2022/01/02 03:46:05;;;;;;;3.00;1.90;;;;;;;;;;5035782;28;20644;-78
2022/01/02 03:48:32;;;;;;;4.57;2.30;;;;;;;;;;5019600;28;20652;-78
2022/01/02 03:50:59;;;;;;;3.67;2.20;;;;;;;;;;5019562;28;20553;-78
2022/01/02 03:53:25;;;;;;;4.77;2.20;;;;;;;;;;5053469;28;20690;-78
2022/01/02 03:55:51;;;;;;;3.03;2.00;;;;;;;;;;5035482;28;20208;-78
2022/01/02 03:58:17;;;;;;;3.77;2.13;;;;;;;;;;5035366;28;20188;-78
2022/01/02 04:00:43;;;;;;;2.97;2.23;;;;;;;;;;5035695;28;20540;-78
2022/01/02 04:03:09;;;;;;;3.70;2.37;;;;;;;;;;5035446;28;20205;-78
2022/01/02 04:05:35;;;;;;;3.43;2.43;;;;;;;;;;5019170;28;20181;-78
2022/01/02 04:08:01;;;;;;;4.50;2.60;;;;;;;;;;5019331;28;20185;-78
2022/01/02 04:10:27;;;;;;;4.43;2.67;;;;;;;;;;5035367;28;20201;-78
2022/01/02 04:12:53;;;;;;;4.20;2.70;;;;;;;;;;5035309;28;20213;-78
2022/01/02 04:15:19;;;;;;;3.40;2.23;;;;;;;;;;5019035;28;20231;-78
2022/01/02 04:17:45;;;;;;;4.20;2.63;;;;;;;;;;5034901;28;20620;-78
2022/01/02 04:20:13;;;;;;;4.37;2.50;;;;;;;;;;5018980;28;20220;-78
2022/01/02 04:22:39;;;;;;;4.03;2.70;;;;;;;;;;5034888;28;20208;-78
2022/01/02 04:25:05;;;;;;;4.43;2.70;;;;;;;;;;5035540;28;20170;-78
2022/01/02 04:27:32;;;;;;;4.23;2.80;;;;;;;;;;5018945;28;20178;-78
2022/01/02 04:29:58;;;;;;;4.30;2.53;;;;;;;;;;5018616;28;20291;-78
2022/01/02 04:32:24;;;;;;;4.97;2.80;;;;;;;;;;5019098;28;20217;-78
2022/01/02 04:34:50;;;;;;;5.90;3.07;;;;;;;;;;5035215;28;20244;-78
2022/01/02 04:37:16;;;;;;;3.87;2.73;;;;;;;;;;5018630;28;20303;-77
2022/01/02 04:39:43;;;;;;;5.10;2.60;;;;;;;;;;5035125;28;20577;-78
2022/01/02 04:42:09;;;;;;;3.53;2.37;;;;;;;;;;5052609;28;20609;-78
2022/01/02 04:44:36;;;;;;;5.73;2.90;;;;;;;;;;5018275;28;20213;-78
2022/01/02 04:47:02;;;;;;;3.67;2.60;;;;;;;;;;5035042;28;20185;-78
2022/01/02 04:49:28;;;;;;;4.07;2.60;;;;;;;;;;5053007;28;20201;-78
2022/01/02 04:51:54;;;;;;;3.77;2.60;;;;;;;;;;5018505;28;20184;-78
2022/01/02 04:54:21;;;;;;;3.07;2.43;;;;;;;;;;5034663;28;20188;-78
2022/01/02 04:56:47;;;;;;;4.53;2.90;;;;;;;;;;5035005;28;20296;-78
2022/01/02 04:59:13;;;;;;;3.83;2.80;;;;;;;;;;5034929;28;20313;-78
2022/01/02 05:01:39;;;;;;;3.50;2.50;;;;;;;;;;5034759;28;20184;-78
2022/01/02 05:04:05;;;;;;;4.07;2.70;;;;;;;;;;5034725;28;20173;-78
2022/01/02 05:06:31;;;;;;;3.10;2.53;;;;;;;;;;5018433;28;20212;-78
2022/01/02 05:08:57;;;;;;;4.67;3.00;;;;;;;;;;5018420;28;20209;-78
2022/01/02 05:11:23;;;;;;;3.60;2.50;;;;;;;;;;5018343;28;20552;-78
2022/01/02 05:13:49;;;;;;;5.23;2.67;;;;;;;;;;5018113;28;20188;-78
2022/01/02 05:16:15;;;;;;;4.57;2.80;;;;;;;;;;5034663;28;20212;-78
2022/01/02 05:18:41;;;;;;;4.00;2.70;;;;;;;;;;5017812;28;20220;-78
2022/01/02 05:21:07;;;;;;;3.87;2.67;;;;;;;;;;5034286;28;20178;-78
2022/01/02 05:23:33;;;;;;;4.17;2.70;;;;;;;;;;5034297;28;20173;-78
2022/01/02 05:25:59;;;;;;;4.03;2.90;;;;;;;;;;5034595;28;20176;-78
2022/01/02 05:28:26;;;;;;;3.93;3.00;;;;;;;;;;5035040;28;20178;-78
2022/01/02 05:30:52;;;;;;;4.33;2.87;;;;;;;;;;5019386;28;20188;-78
2022/01/02 05:33:18;;;;;;;5.57;2.70;;;;;;;;;;5038299;28;20279;-78
2022/01/02 05:35:44;;;;;;;4.13;2.73;;;;;;;;;;5022256;28;20311;-78
2022/01/02 05:38:10;;;;;;;4.13;2.70;;;;;;;;;;5021931;28;20185;-78
2022/01/02 05:40:36;;;;;;;3.47;2.80;;;;;;;;;;5021471;28;20208;-78
2022/01/02 05:43:04;;;;;;;3.53;2.60;;;;;;;;;;5037776;28;20181;-78
2022/01/02 05:45:30;;;;;;;3.33;2.90;;;;;;;;;;5038240;28;20315;-78
2022/01/02 05:47:56;;;;;;;4.73;2.70;;;;;;;;;;5055761;28;20205;-78
2022/01/02 05:50:22;;;;;;;3.90;2.73;;;;;;;;;;5037794;28;20189;-79
2022/01/02 05:52:48;;;;;;;4.30;2.70;;;;;;;;;;5037981;28;20168;-79
2022/01/02 05:55:14;;;;;;;3.77;3.00;;;;;;;;;;5037826;28;20231;-79
2022/01/02 05:57:40;;;;;;;3.23;2.70;;;;;;;;;;5038233;28;20183;-78
2022/01/02 06:00:07;;;;;;;4.13;2.97;;;;;;;;;;5037506;28;20587;-78
2022/01/02 06:02:33;;;;;;;5.67;3.20;;;;;;;;;;5037644;28;20220;-78
2022/01/02 06:05:02;;;;;;;4.10;3.17;;;;;;;;;;5037913;28;20226;-78
2022/01/02 06:07:28;;;;;;;4.47;3.30;;;;;;;;;;5021860;28;20184;-78
2022/01/02 06:09:54;;;;;;;5.10;3.40;;;;;;;;;;5020366;28;20204;-84
2022/01/02 06:12:23;;;;;;;5.00;3.57;;;;;;;;;;5019938;28;20231;-84
2022/01/02 06:14:49;;;;;;;4.20;2.90;;;;;;;;;;5020758;28;20185;-85
2022/01/02 06:17:15;;;;;;;5.77;3.43;;;;;;;;;;5020199;28;20220;-84
2022/01/02 06:19:41;;;;;;;3.63;2.87;;;;;;;;;;5020146;28;20682;-85
2022/01/02 06:22:07;;;;;;;5.00;3.40;;;;;;;;;;5019982;28;20184;-84
2022/01/02 06:24:33;;;;;;;4.87;3.13;;;;;;;;;;5019801;28;20188;-84
2022/01/02 06:26:59;;;;;;;5.63;3.60;;;;;;;;;;5036331;28;20185;-84
2022/01/02 06:29:25;;;;;;;5.00;3.30;;;;;;;;;;5020114;28;20213;-82
2022/01/02 06:31:51;;;;;;;6.00;3.17;;;;;;;;;;5019881;28;20658;-85
2022/01/02 06:34:17;;;;;;;3.87;2.90;;;;;;;;;;5035955;28;20642;-84
2022/01/02 06:36:43;;;;;;;4.47;2.93;;;;;;;;;;5019898;28;20219;-83
2022/01/02 06:39:09;;;;;;;3.87;3.00;;;;;;;;;;5019749;28;20671;-84
2022/01/02 06:41:35;;;;;;;4.37;2.70;;;;;;;;;;5019552;28;20260;-85
2022/01/02 06:44:01;;;;;;;5.13;3.23;;;;;;;;;;5035455;28;20177;-84
2022/01/02 06:46:27;;;;;;;4.77;3.10;;;;;;;;;;5036126;28;20192;-84
2022/01/02 06:48:54;;;;;;;4.83;3.03;;;;;;;;;;5019392;28;20219;-84
2022/01/02 06:51:20;;;;;;;4.63;3.00;;;;;;;;;;5019476;28;20640;-83
2022/01/02 06:53:46;;;;;;;3.83;3.00;;;;;;;;;;5035422;28;20177;-83
2022/01/02 06:56:12;;;;;;;4.33;3.33;;;;;;;;;;5019579;28;20209;-83
2022/01/02 06:58:40;;;;;;;4.07;3.30;;;;;;;;;;5019322;28;20215;-82
2022/01/02 07:01:06;;;;;;;4.70;3.13;;;;;;;;;;5019800;28;20191;-83
2022/01/02 07:03:37;;;;;;;3.03;2.40;;;;;;;;;;5035825;28;20171;-83
2022/01/02 07:06:03;;;;;;;4.50;3.00;;;;;;;;;;5035832;28;20242;-82
2022/01/02 07:08:29;;;;;;;4.20;3.33;;;;;;;;;;5019179;28;20189;-83
2022/01/02 07:10:56;;;;;;;3.70;2.70;;;;;;;;;;5019413;28;20189;-83
2022/01/02 07:13:22;;;;;;;4.60;3.10;;;;;;;;;;5035505;28;20184;-84
2022/01/02 07:15:48;;;;;;;4.37;3.10;;;;;;;;;;5035476;28;20261;-84
2022/01/02 07:18:14;;;;;;;4.60;2.70;;;;;;;;;;5019120;28;20279;-84
2022/01/02 07:20:40;;;;;;;5.30;3.03;;;;;;;;;;5018901;28;20278;-84
2022/01/02 07:23:06;;;;;;;4.40;3.03;;;;;;;;;;5035104;28;20180;-84
2022/01/02 07:25:32;;;;;;;3.93;2.80;;;;;;;;;;5035644;28;20581;-84
2022/01/02 07:27:58;;;;;;;4.00;2.90;;;;;;;;;;5035312;28;20185;-85
2022/01/02 07:30:24;;;;;;;3.40;2.70;;;;;;;;;;5035069;28;20251;-84
2022/01/02 07:32:50;;;;;;;4.20;2.73;;;;;;;;;;5035036;28;20177;-84
2022/01/02 07:35:16;;;;;;;5.33;3.00;;;;;;;;;;5035042;28;20173;-84
2022/01/02 07:37:42;;;;;;;4.53;3.03;;;;;;;;;;5019004;28;20180;-82
2022/01/02 07:40:08;;;;;;;4.80;3.13;;;;;;;;;;5018782;28;20290;-80
2022/01/02 07:42:34;;;;;;;5.07;3.07;;;;;;;;;;5035051;28;20226;-80
2022/01/02 07:45:01;;;;;;;4.93;3.17;;;;;;;;;;5034953;28;20233;-81
2022/01/02 07:47:27;;;;;;;4.77;3.30;;;;;;;;;;5018677;28;20192;-80
2022/01/02 07:49:53;;;;;;;5.30;3.07;;;;;;;;;;5034897;28;20243;-81
2022/01/02 07:52:19;;;;;;;3.93;2.73;;;;;;;;;;5018620;28;20180;-81
2022/01/02 07:54:45;;;;;;;3.80;2.77;;;;;;;;;;5017859;28;20319;-81
2022/01/02 07:57:11;;;;;;;4.67;3.50;;;;;;;;;;5018784;28;20303;-82
2022/01/02 07:59:37;;;;;;;4.63;3.20;;;;;;;;;;5019218;28;20221;-81
2022/01/02 08:02:03;;;;;;;3.10;2.50;;;;;;;;;;5018664;28;20641;-80
2022/01/02 08:04:29;;;;;;;3.57;2.77;;;;;;;;;;5018315;28;20177;-80
2022/01/02 08:06:55;;;;;;;4.00;2.90;;;;;;;;;;5035075;28;20186;-83
2022/01/02 08:09:21;;;;;;;4.57;2.73;;;;;;;;;;5018224;28;20212;-83
2022/01/02 08:11:47;;;;;;;3.80;2.83;;;;;;;;;;5034914;28;20191;-80
2022/01/02 08:14:13;;;;;;;3.47;2.70;;;;;;;;;;5034896;28;20221;-81
2022/01/02 08:16:39;;;;;;;4.50;2.93;;;;;;;;;;5018265;28;20208;-82
2022/01/02 08:19:06;;;;;;;4.57;3.10;;;;;;;;;;5034209;28;20228;-82
2022/01/02 08:21:32;;;;;;;4.57;3.07;;;;;;;;;;5018438;28;20211;-77
2022/01/02 08:23:58;;;;;;;3.53;3.00;;;;;;;;;;5034589;28;20180;-85
2022/01/02 08:26:24;;;;;;;4.03;3.00;;;;;;;;;;5018298;28;20196;-80
2022/01/02 08:28:51;;;;;;;3.40;2.87;;;;;;;;;;5018195;28;20579;-80
2022/01/02 08:31:17;;;;;;;4.93;3.23;;;;;;;;;;5017874;28;20667;-80
2022/01/02 08:33:43;;;;;;;3.60;2.60;;;;;;;;;;5034151;28;20216;-81
2022/01/02 08:36:09;;;;;;;5.30;3.20;;;;;;;;;;5018126;28;20248;-80
2022/01/02 08:38:35;;;;;;;4.37;3.10;;;;;;;;;;5018257;28;20201;-81
2022/01/02 08:41:01;;;;;;;4.23;3.20;;;;;;;;;;5034347;28;20177;-81
2022/01/02 08:43:27;;;;;;;4.53;3.33;;;;;;;;;;5034228;28;20216;-81
2022/01/02 08:45:53;;;;;;;4.70;3.37;;;;;;;;;;5018089;28;20174;-82
2022/01/02 08:48:19;;;;;;;8.30;5.70;;;;;;;;;;5034060;28;20180;-82
2022/01/02 08:50:45;;;;;;;4.77;3.57;;;;;;;;;;5018257;28;20185;-81
2022/01/02 08:53:11;;;;;;;3.83;3.10;;;;;;;;;;5034320;28;20254;-82
2022/01/02 08:55:37;;;;;;;4.03;2.90;;;;;;;;;;5018421;28;20209;-82
2022/01/02 08:58:03;;;;;;;4.17;2.80;;;;;;;;;;5034109;28;20170;-82
2022/01/02 09:00:31;;;;;;;3.67;2.73;;;;;;;;;;5034191;28;20209;-82
2022/01/02 09:02:57;;;;;;;4.20;2.57;;;;;;;;;;5033863;28;20178;-82
2022/01/02 09:05:25;;;;;;;3.20;2.50;;;;;;;;;;5020334;28;20192;-80
2022/01/02 09:07:51;;;;;;;5.30;2.60;;;;;;;;;;5038386;28;20227;-81
2022/01/02 09:10:18;;;;;;;3.53;2.50;;;;;;;;;;5021626;28;20668;-81
2022/01/02 09:12:44;;;;;;;4.37;2.67;;;;;;;;;;5021873;28;20530;-81
2022/01/02 09:15:11;;;;;;;5.30;2.63;;;;;;;;;;5037839;28;20551;-81
2022/01/02 09:17:38;;;;;;;3.80;2.90;;;;;;;;;;5021331;28;20220;-80
2022/01/02 09:20:05;;;;;;;4.00;2.90;;;;;;;;;;5021749;28;20236;-83
2022/01/02 09:22:31;;;;;;;3.37;2.23;;;;;;;;;;5037526;28;20177;-84
2022/01/02 09:24:57;;;;;;;4.23;2.73;;;;;;;;;;5021250;28;20191;-84
2022/01/02 09:27:23;;;;;;;3.13;2.50;;;;;;;;;;5037665;28;20181;-85
2022/01/02 09:29:49;;;;;;;3.30;2.50;;;;;;;;;;5021039;28;20632;-83
2022/01/02 09:32:15;;;;;;;3.07;2.37;;;;;;;;;;5037508;28;20177;-82
2022/01/02 09:34:41;;;;;;;2.97;2.20;;;;;;;;;;5021214;28;20186;-83
2022/01/02 09:37:07;;;;;;;3.97;2.60;;;;;;;;;;5020818;28;20240;-83
2022/01/02 09:39:34;;;;;;;3.27;2.43;;;;;;;;;;5037361;28;20652;-83
2022/01/02 09:42:00;;;;;;;2.60;2.20;;;;;;;;;;5037408;28;20214;-83
2022/01/02 09:44:26;;;;;;;3.00;2.00;;;;;;;;;;5020634;28;20216;-83
2022/01/02 09:46:53;;;;;;;2.90;2.30;;;;;;;;;;5020853;28;20223;-83
2022/01/02 09:49:22;;;;;;;2.80;1.97;;;;;;;;;;5037133;28;20198;-84
2022/01/02 09:51:48;;;;;;;2.53;2.10;;;;;;;;;;5020948;28;20255;-83
2022/01/02 09:54:15;;;;;;;3.47;2.40;;;;;;;;;;5037035;28;20189;-83
2022/01/02 09:56:41;;;;;;;2.53;2.00;;;;;;;;;;5037073;28;20197;-83
2022/01/02 09:59:07;;;;;;;3.00;2.40;;;;;;;;;;5036700;28;20576;-80
2022/01/02 10:01:33;;;;;;;2.87;2.20;;;;;;;;;;5037077;28;20178;-83
2022/01/02 10:03:59;;;;;;;3.33;2.60;;;;;;;;;;5020540;28;20185;-83
2022/01/02 10:06:40;;;;;;;3.10;2.50;;;;;;;;;;5036937;28;20185;-84
2022/01/02 10:09:09;;;;;;;3.90;2.33;;;;;;;;;;5036742;28;20255;-83
2022/01/02 10:11:37;;;;;;;2.50;2.20;;;;;;;;;;5036835;28;20181;-83
2022/01/02 10:14:05;;;;;;;3.23;2.70;;;;;;;;;;5020437;28;20182;-83
2022/01/02 10:16:33;;;;;;;3.20;2.17;;;;;;;;;;5035747;28;20206;-83
2022/01/02 10:19:00;;;;;;;2.90;2.30;;;;;;;;;;5036527;28;20194;-83
2022/01/02 10:21:27;;;;;;;2.40;1.93;;;;;;;;;;5036745;28;20174;-83
2022/01/02 10:24:12;;;;;;;4.47;2.87;;;;;;;;;;5019902;28;20178;-82
2022/01/02 10:26:38;;;;;;;2.63;2.10;;;;;;;;;;5036669;28;20185;-82
2022/01/02 10:29:13;;;;;;;3.97;2.40;;;;;;;;;;5036486;28;20613;-82
2022/01/02 10:31:40;;;;;;;2.53;2.17;;;;;;;;;;5036061;28;20177;-82
2022/01/02 10:34:06;;;;;;;3.13;2.13;;;;;;;;;;5035918;28;20173;-81
2022/01/02 10:36:34;;;;;;;3.23;1.97;;;;;;;;;;5044186;28;20296;-81
2022/01/02 10:39:11;;;;;;;3.70;2.30;;;;;;;;;;5017244;28;20233;-83
2022/01/02 10:41:45;;;;;;;3.17;2.30;;;;;;;;;;5020811;28;20182;-83
2022/01/02 10:44:26;;;;;;;3.47;2.23;;;;;;;;;;5040154;28;20168;-81
2022/01/02 10:47:04;;;;;;;2.53;2.13;;;;;;;;;;5040354;28;20204;-81
2022/01/02 10:49:49;;;;;;;2.17;1.90;;;;;;;;;;5038666;28;20209;-80
2022/01/02 10:52:19;;;;;;;2.93;1.80;;;;;;;;;;5036569;28;20208;-81
2022/01/02 10:54:45;;;;;;;2.87;2.13;;;;;;;;;;5036623;28;20213;-81
2022/01/02 10:57:12;;;;;;;2.20;1.90;;;;;;;;;;5020032;28;20632;-81
2022/01/02 10:59:39;;;;;;;2.53;1.97;;;;;;;;;;5044589;28;20217;-81
2022/01/02 11:02:05;;;;;;;2.27;1.90;;;;;;;;;;5023864;28;20219;-81
2022/01/02 11:04:34;;;;;;;2.90;2.13;;;;;;;;;;5041560;28;20178;-82
2022/01/02 11:07:01;;;;;;;2.63;1.90;;;;;;;;;;5041499;28;20236;-81
2022/01/02 11:09:27;;;;;;;3.03;2.10;;;;;;;;;;5019883;28;20204;-82
2022/01/02 11:11:54;;;;;;;2.30;2.10;;;;;;;;;;5035517;28;20638;-77
2022/01/02 11:14:20;;;;;;;2.83;2.30;;;;;;;;;;5018881;28;20279;-76
2022/01/02 11:16:47;;;;;;;2.87;2.10;;;;;;;;;;5036012;28;20205;-79
2022/01/02 11:19:13;;;;;;;2.50;2.20;;;;;;;;;;5035829;28;20198;-78
2022/01/02 11:21:41;;;;;;;5.03;2.67;;;;;;;;;;5019171;28;20558;-77
2022/01/02 11:24:07;;;;;;;2.43;2.10;;;;;;;;;;5035523;28;20184;-77
2022/01/02 11:26:54;;;;;;;2.07;1.87;;;;;;;;;;5035058;28;20279;-77
2022/01/02 11:29:25;;;;;;;2.20;1.90;;;;;;;;;;5035021;28;20198;-79
2022/01/02 11:31:51;;;;;;;3.00;2.30;;;;;;;;;;5037779;28;20192;-81
2022/01/02 11:34:22;;;;;;;3.13;1.90;;;;;;;;;;5019500;28;20549;-78
2022/01/02 11:36:48;;;;;;;3.10;2.00;;;;;;;;;;5019000;28;20299;-83
2022/01/02 11:39:14;;;;;;;2.30;2.00;;;;;;;;;;5019306;28;20200;-82
2022/01/02 11:41:44;;;;;;;2.80;2.27;;;;;;;;;;5035614;28;20549;-82
2022/01/02 11:44:11;;;;;;;2.13;1.83;;;;;;;;;;5019230;28;20177;-83
2022/01/02 11:46:53;;;;;;;2.80;2.13;;;;;;;;;;5035683;28;20174;-83
2022/01/02 11:49:19;;;;;;;2.67;2.00;;;;;;;;;;5035461;28;20190;-83
2022/01/02 11:51:49;;;;;;;2.40;2.00;;;;;;;;;;5035275;28;20245;-83
2022/01/02 11:54:31;;;;;;;4.97;2.10;;;;;;;;;;5035224;28;20182;-83
2022/01/02 11:56:58;;;;;;;2.77;2.20;;;;;;;;;;5035091;28;20208;-82
2022/01/02 11:59:39;;;;;;;2.63;2.20;;;;;;;;;;5018669;28;20366;-84
2022/01/02 12:02:08;;;;;;;3.13;2.20;;;;;;;;;;5034904;28;20258;-83
2022/01/02 12:04:53;;;;;;;2.70;2.30;;;;;;;;;;5034881;28;20636;-83
2022/01/02 12:07:37;;;;;;;2.40;2.07;;;;;;;;;;5034955;28;20239;-83
2022/01/02 12:12:59;;;;;;;3.43;2.20;;;;;;;;;;5052301;28;20181;-82
2022/01/02 12:15:32;;;;;;;2.57;2.20;;;;;;;;;;5034878;28;20185;-83
2022/01/02 12:18:08;;;;;;;3.00;2.20;;;;;;;;;;5034982;28;20213;-82
2022/01/02 12:20:53;;;;;;;4.00;2.17;;;;;;;;;;5034766;28;20197;-83
2022/01/02 12:23:35;;;;;;;3.37;2.30;;;;;;;;;;5034597;28;20170;-83
2022/01/02 12:26:08;;;;;;;4.00;2.40;;;;;;;;;;5034799;28;20174;-83
2022/01/02 12:28:57;;;;;;;4.17;2.40;;;;;;;;;;5034410;28;20291;-82
2022/01/02 12:31:31;;;;;;;2.93;2.30;;;;;;;;;;5018792;28;20174;-83
2022/01/02 12:34:08;;;;;;;3.63;2.30;;;;;;;;;;5034720;28;20188;-83
2022/01/02 12:36:34;;;;;;;3.70;2.30;;;;;;;;;;5034379;28;20200;-83
2022/01/02 12:39:08;;;;;;;2.70;2.27;;;;;;;;;;5034013;28;20228;-82
2022/01/02 12:41:35;;;;;;;2.60;2.37;;;;;;;;;;5034586;28;20177;-82
2022/01/02 12:44:01;;;;;;;2.70;2.27;;;;;;;;;;5017680;28;20200;-83
2022/01/02 12:46:46;;;;;;;2.70;2.23;;;;;;;;;;5034830;28;20644;-83
2022/01/02 12:49:13;;;;;;;3.20;1.90;;;;;;;;;;5034495;28;20201;-83
2022/01/02 12:51:41;;;;;;;4.23;2.30;;;;;;;;;;5018243;28;20670;-83
2022/01/02 12:54:08;;;;;;;5.10;3.27;;;;;;;;;;5018171;28;20235;-83
2022/01/02 12:56:35;;;;;;;3.97;3.50;;;;;;;;;;5034767;28;20198;-83
2022/01/02 12:59:14;;;;;;;3.20;2.50;;;;;;;;;;5018449;28;20580;-84
2022/01/02 13:01:47;;;;;;;3.97;3.57;;;;;;;;;;5034648;28;20184;-83
2022/01/02 13:04:15;;;;;;;5.47;4.40;;;;;;;;;;5018015;28;20185;-83
2022/01/02 13:06:44;;;;;;;4.40;3.27;;;;;;;;;;5018220;28;20185;-83
2022/01/02 13:09:10;;;;;;;3.80;3.00;;;;;;;;;;5018064;28;20201;-84
2022/01/02 13:11:36;;;;;;;3.53;2.90;;;;;;;;;;5018287;28;20281;-84
2022/01/02 13:14:02;;;;;;;3.67;2.97;;;;;;;;;;5018432;28;20190;-84
2022/01/02 13:16:28;;;;;;;2.77;2.57;;;;;;;;;;5034428;28;20292;-83
2022/01/02 13:18:55;;;;;;;3.17;2.80;;;;;;;;;;5017694;28;20202;-83
2022/01/02 13:21:21;;;;;;;3.40;2.50;;;;;;;;;;5018099;28;20238;-83
2022/01/02 13:23:47;;;;;;;3.80;2.83;;;;;;;;;;5018135;28;20182;-83
2022/01/02 13:26:17;;;;;;;4.80;3.10;;;;;;;;;;5018130;28;20181;-83
2022/01/02 13:28:44;;;;;;;3.27;2.87;;;;;;;;;;5034299;28;20197;-83
2022/01/02 13:31:11;;;;;;;3.40;2.70;;;;;;;;;;5018163;28;20189;-83
2022/01/02 13:33:43;;;;;;;3.07;2.77;;;;;;;;;;5033956;28;20709;-83
2022/01/02 13:36:16;;;;;;;3.27;2.90;;;;;;;;;;5018589;28;20601;-83
2022/01/02 13:38:56;;;;;;;4.90;3.00;;;;;;;;;;5017768;28;20569;-83
2022/01/02 13:41:24;;;;;;;3.63;2.87;;;;;;;;;;5034438;28;20173;-84
2022/01/02 13:43:51;;;;;;;3.70;2.67;;;;;;;;;;5017802;28;20640;-83
2022/01/02 13:46:18;;;;;;;3.40;2.70;;;;;;;;;;5018041;28;20179;-83
2022/01/02 13:48:44;;;;;;;3.23;2.70;;;;;;;;;;5033946;28;20228;-83
2022/01/02 13:51:14;;;;;;;5.00;3.30;;;;;;;;;;5034239;28;20644;-82
2022/01/02 13:53:40;;;;;;;4.20;3.00;;;;;;;;;;5037458;28;20185;-83
2022/01/02 13:56:06;;;;;;;4.27;2.77;;;;;;;;;;5021119;28;20254;-83
2022/01/02 13:58:39;;;;;;;3.33;2.80;;;;;;;;;;5037605;28;20636;-83
2022/01/02 14:01:06;;;;;;;4.07;3.30;;;;;;;;;;5078503;22;20283;-81
2022/01/02 14:03:33;;;;;;;4.70;2.80;;;;;;;;;;5021107;28;20257;-81
2022/01/02 14:06:01;;;;;;;3.77;3.00;;;;;;;;;;5054134;28;20178;-80
2022/01/02 14:08:27;;;;;;;4.17;3.27;;;;;;;;;;5054357;28;20182;-81
2022/01/02 14:11:03;;;;;;;4.17;3.20;;;;;;;;;;5053815;28;20200;-82
2022/01/02 14:13:29;;;;;;;3.67;3.00;;;;;;;;;;5016714;28;20188;-81
2022/01/02 14:16:00;;;;;;;3.90;3.20;;;;;;;;;;5036928;28;20202;-81
2022/01/02 14:18:29;;;;;;;4.10;3.03;;;;;;;;;;5037276;28;20174;-81
2022/01/02 14:21:01;;;;;;;4.57;3.40;;;;;;;;;;5037061;28;20612;-81
2022/01/02 14:23:31;;;;;;;4.57;3.37;;;;;;;;;;5038713;28;20708;-82
2022/01/02 14:25:58;;;;;;;4.37;3.40;;;;;;;;;;5020923;28;20278;-82
2022/01/02 14:28:24;;;;;;;4.40;3.60;;;;;;;;;;5037066;28;20714;-82
2022/01/02 14:30:51;;;;;;;4.87;3.50;;;;;;;;;;5034162;28;20308;-82
2022/01/02 14:33:17;;;;;;;5.50;3.50;;;;;;;;;;5036935;28;20178;-82
2022/01/02 14:35:43;;;;;;;4.20;3.50;;;;;;;;;;5037049;28;20777;-82
2022/01/02 14:38:09;;;;;;;4.17;3.67;;;;;;;;;;5020710;28;20204;-82
2022/01/02 14:40:35;;;;;;;5.73;3.50;;;;;;;;;;5036750;28;20660;-82
2022/01/02 14:43:01;;;;;;;5.13;4.00;;;;;;;;;;5036571;28;20173;-83
2022/01/02 14:45:27;;;;;;;5.47;3.87;;;;;;;;;;5036626;28;20663;-78
2022/01/02 14:47:54;;;;;;;5.17;4.20;;;;;;;;;;5035827;28;20181;-78
2022/01/02 14:50:20;;;;;;;4.60;3.80;;;;;;;;;;5018193;28;20316;-79
2022/01/02 14:52:46;;;;;;;6.23;3.83;;;;;;;;;;5039197;28;20680;-81
2022/01/02 14:55:19;;;;;;;5.10;3.90;;;;;;;;;;5015037;28;20563;-82
2022/01/02 14:57:47;;;;;;;4.77;3.80;;;;;;;;;;5016521;28;20210;-83
2022/01/02 15:00:15;;;;;;;5.43;4.00;;;;;;;;;;5000122;28;20210;-83